Time;durP1;ratioP1;P1;durP2;ratioP2;P2;SDS_P1;SDS_P2;PMS_P1;PMS_P2;Temp;Humidity;BMP_temperature;BMP_pressure;BME280_temperature;BME280_humidity;BME280_pressure;Samples;Min_cycle;Max_cycle;Signal;HPM_P1;HPM_P2
2022/10/30 00:00:14;;;;;;;23.40;12.15;;;13.10;99.90;;;;;;4920114;29;20043;-64
2022/10/30 00:02:39;;;;;;;27.25;12.35;;;13.10;99.90;;;;;;4927787;29;20469;-63
2022/10/30 00:05:05;;;;;;;20.80;11.55;;;13.20;99.90;;;;;;4925418;29;20043;-63
2022/10/30 00:07:32;;;;;;;23.33;11.95;;;13.10;99.90;;;;;;4908706;29;20127;-64
2022/10/30 00:09:57;;;;;;;21.00;11.82;;;13.20;99.90;;;;;;4908346;29;20047;-64
2022/10/30 00:12:23;;;;;;;24.75;11.60;;;13.20;99.90;;;;;;4909654;29;20408;-64
2022/10/30 00:14:48;;;;;;;23.20;11.10;;;13.30;99.90;;;;;;4908728;29;20056;-64
2022/10/30 00:17:14;;;;;;;21.90;11.80;;;13.50;99.90;;;;;;4905971;29;20047;-65
2022/10/30 00:19:39;;;;;;;25.02;10.60;;;13.50;99.90;;;;;;4891837;29;20044;-65
2022/10/30 00:22:05;;;;;;;20.05;11.57;;;13.60;99.90;;;;;;4922568;29;20043;-65
2022/10/30 00:24:30;;;;;;;21.63;11.77;;;13.50;99.90;;;;;;4925735;29;20047;-64
2022/10/30 00:26:56;;;;;;;22.60;12.07;;;13.50;99.90;;;;;;4907663;29;20047;-64
2022/10/30 00:29:25;;;;;;;26.35;11.68;;;13.40;99.90;;;;;;4925759;29;20710;-64
2022/10/30 00:31:51;;;;;;;18.80;10.93;;;13.40;99.90;;;;;;4925705;29;20067;-63
2022/10/30 00:34:17;;;;;;;25.98;10.90;;;13.40;99.90;;;;;;4922667;29;20074;-64
2022/10/30 00:36:42;;;;;;;22.45;11.07;;;13.40;99.90;;;;;;4925169;29;20487;-64
2022/10/30 00:39:08;;;;;;;21.25;11.27;;;13.50;99.90;;;;;;4917560;29;20035;-64
2022/10/30 00:41:33;;;;;;;26.80;11.20;;;13.50;99.90;;;;;;4926718;29;20035;-65
2022/10/30 00:43:59;;;;;;;20.67;10.73;;;13.50;99.90;;;;;;4918917;29;20059;-65
2022/10/30 00:46:36;;;;;;;23.73;10.38;;;13.50;99.90;;;;;;4904553;29;20079;-65
2022/10/30 00:49:15;;;;;;;20.05;10.68;;;13.50;99.90;;;;;;4920807;29;20454;-64
2022/10/30 00:51:48;;;;;;;22.95;10.70;;;13.60;99.90;;;;;;4922970;29;20083;-64
2022/10/30 00:54:16;;;;;;;20.85;10.02;;;13.50;99.90;;;;;;4926933;29;20114;-64
2022/10/30 00:56:43;;;;;;;21.30;11.15;;;13.60;99.90;;;;;;4927641;29;20036;-64
2022/10/30 00:59:12;;;;;;;20.67;11.73;;;13.60;99.90;;;;;;4925924;29;20264;-63
2022/10/30 01:01:42;;;;;;;22.20;10.52;;;13.50;99.90;;;;;;4929717;29;20060;-64
2022/10/30 01:04:13;;;;;;;28.13;12.57;;;13.50;99.90;;;;;;4928807;29;20042;-64
2022/10/30 01:06:43;;;;;;;22.15;11.23;;;13.50;99.90;;;;;;4914174;29;20051;-64
2022/10/30 01:09:09;;;;;;;18.70;11.23;;;13.40;99.90;;;;;;4932134;29;20043;-64
2022/10/30 01:11:34;;;;;;;23.05;11.07;;;13.40;99.90;;;;;;4932413;29;20039;-65
2022/10/30 01:14:04;;;;;;;26.45;10.77;;;13.30;99.90;;;;;;4931402;29;20031;-64
2022/10/30 01:17:00;;;;;;;20.27;10.48;;;13.30;99.90;;;;;;4921193;29;20062;-64
2022/10/30 01:19:54;;;;;;;26.13;10.77;;;13.30;99.90;;;;;;4935220;29;20612;-65
2022/10/30 01:22:38;;;;;;;21.40;9.88;;;13.30;99.90;;;;;;4926972;29;20103;-65
2022/10/30 01:25:20;;;;;;;18.45;10.50;;;13.30;99.90;;;;;;4930619;29;20043;-64
2022/10/30 01:28:05;;;;;;;19.25;9.98;;;13.20;99.90;;;;;;4930204;29;20051;-65
2022/10/30 01:30:37;;;;;;;18.77;10.45;;;13.20;99.90;;;;;;4923338;29;20519;-66
2022/10/30 01:33:47;;;;;;;21.52;11.13;;;13.10;99.90;;;;;;4925535;29;20043;-64
2022/10/30 01:36:36;;;;;;;;;;;13.10;99.90;;;;;;4925368;29;20087;-64
2022/10/30 01:39:09;;;;;;;26.13;11.20;;;13.00;99.90;;;;;;4923520;29;20268;-64
2022/10/30 01:41:34;;;;;;;21.48;11.35;;;13.00;99.90;;;;;;4924694;29;20048;-65
2022/10/30 01:44:07;;;;;;;21.05;10.98;;;13.00;99.90;;;;;;4924300;29;20794;-66
2022/10/30 01:46:50;;;;;;;24.75;11.00;;;13.00;99.90;;;;;;4926495;29;20031;-64
2022/10/30 01:49:44;;;;;;;26.35;12.13;;;13.00;99.90;;;;;;4930015;29;20132;-64
2022/10/30 01:52:24;;;;;;;23.20;10.82;;;12.90;99.90;;;;;;4901716;29;20051;-65
2022/10/30 01:54:56;;;;;;;25.90;12.50;;;12.90;99.90;;;;;;4926428;29;20039;-64
2022/10/30 01:57:46;;;;;;;22.55;11.27;;;12.90;99.90;;;;;;4931792;29;20728;-64
2022/10/30 02:00:15;;;;;;;19.85;11.20;;;12.90;99.90;;;;;;4927504;29;20052;-64
2022/10/30 02:02:42;;;;;;;24.08;11.20;;;12.90;99.90;;;;;;4928886;29;20048;-64
2022/10/30 02:05:10;;;;;;;26.77;12.05;;;12.90;99.90;;;;;;4926535;29;20123;-65
2022/10/30 02:07:36;;;;;;;24.25;11.30;;;12.90;99.90;;;;;;4927368;29;20048;-65
2022/10/30 02:10:03;;;;;;;23.63;12.20;;;13.00;99.90;;;;;;4929083;29;20062;-64
2022/10/30 02:12:28;;;;;;;26.13;11.93;;;12.90;99.90;;;;;;4928889;29;20494;-64
2022/10/30 02:14:58;;;;;;;27.70;11.68;;;12.80;99.90;;;;;;4925199;29;20048;-64
2022/10/30 02:17:24;;;;;;;21.25;11.35;;;12.90;99.90;;;;;;4926369;29;20050;-64
2022/10/30 02:19:50;;;;;;;25.33;11.30;;;12.80;99.90;;;;;;4913510;29;20518;-65
2022/10/30 02:22:16;;;;;;;23.63;11.30;;;12.80;99.90;;;;;;4925107;29;20047;-64
2022/10/30 02:24:42;;;;;;;23.15;11.18;;;12.70;99.90;;;;;;4927784;29;20461;-65
2022/10/30 02:27:08;;;;;;;24.20;11.40;;;12.70;99.90;;;;;;4931189;29;20051;-65
2022/10/30 02:29:34;;;;;;;22.02;11.45;;;12.70;99.90;;;;;;4933951;29;20058;-64
2022/10/30 02:32:00;;;;;;;20.23;10.43;;;12.70;99.90;;;;;;4929606;29;20067;-65
2022/10/30 02:34:28;;;;;;;23.10;11.43;;;12.70;99.90;;;;;;4930290;29;20047;-64
2022/10/30 02:36:54;;;;;;;22.02;11.07;;;12.70;99.90;;;;;;4930543;29;20400;-64
2022/10/30 02:39:20;;;;;;;20.23;10.90;;;12.70;99.90;;;;;;4925277;29;20063;-66
2022/10/30 02:41:46;;;;;;;20.08;11.38;;;12.60;99.90;;;;;;4928098;29;20067;-64
2022/10/30 02:44:12;;;;;;;20.40;10.55;;;12.60;99.90;;;;;;4928512;29;20051;-64
2022/10/30 02:46:38;;;;;;;23.30;11.18;;;12.60;99.90;;;;;;4922858;29;20039;-64
2022/10/30 02:49:04;;;;;;;23.83;11.95;;;12.60;99.90;;;;;;4931379;29;20091;-64
2022/10/30 02:51:32;;;;;;;23.33;11.68;;;12.60;99.90;;;;;;4931176;29;20134;-64
2022/10/30 02:53:59;;;;;;;18.67;10.82;;;12.60;99.90;;;;;;4927144;29;20130;-65
2022/10/30 02:56:25;;;;;;;22.55;10.93;;;12.50;99.90;;;;;;4933303;29;20094;-64
2022/10/30 02:58:50;;;;;;;19.10;10.70;;;12.50;99.90;;;;;;4925738;29;20059;-65
2022/10/30 03:01:18;;;;;;;22.10;10.85;;;12.40;99.90;;;;;;4904652;29;20044;-64
2022/10/30 03:03:45;;;;;;;27.58;10.95;;;12.40;99.90;;;;;;4909514;29;20085;-64
2022/10/30 03:06:14;;;;;;;26.38;10.73;;;12.40;99.90;;;;;;4926597;29;20093;-65
2022/10/30 03:08:40;;;;;;;20.40;10.98;;;12.30;99.90;;;;;;4925593;29;20078;-65
2022/10/30 03:11:12;;;;;;;19.38;10.93;;;12.40;99.90;;;;;;4915114;29;20052;-64
2022/10/30 03:13:39;;;;;;;25.30;11.00;;;12.30;99.90;;;;;;4913045;29;20054;-64
2022/10/30 03:16:10;;;;;;;21.45;10.68;;;12.30;99.90;;;;;;4923073;29;20062;-64
2022/10/30 03:18:36;;;;;;;25.20;10.65;;;12.20;99.90;;;;;;4932435;29;20368;-65
2022/10/30 03:21:04;;;;;;;24.40;11.70;;;12.20;99.90;;;;;;4926432;29;20039;-66
2022/10/30 03:23:30;;;;;;;19.70;10.50;;;12.10;99.90;;;;;;4930305;29;20059;-65
2022/10/30 03:25:57;;;;;;;21.15;11.48;;;12.10;99.90;;;;;;4932409;29;20616;-65
2022/10/30 03:28:26;;;;;;;24.50;11.38;;;12.10;99.90;;;;;;4916102;29;20040;-64
2022/10/30 03:31:07;;;;;;;23.70;11.02;;;12.10;99.90;;;;;;4926888;29;20036;-65
2022/10/30 03:33:33;;;;;;;17.85;10.57;;;12.10;99.90;;;;;;4910264;29;20055;-65
2022/10/30 03:36:00;;;;;;;17.65;11.10;;;12.00;99.90;;;;;;4905978;29;20078;-64
2022/10/30 03:38:26;;;;;;;28.83;11.43;;;12.10;99.90;;;;;;4931409;29;20381;-64
2022/10/30 03:40:52;;;;;;;24.65;12.02;;;12.10;99.90;;;;;;4914130;29;20040;-64
2022/10/30 03:43:18;;;;;;;27.67;12.40;;;12.10;99.90;;;;;;4914225;29;20087;-64
2022/10/30 03:45:52;;;;;;;24.75;11.90;;;12.10;99.90;;;;;;4911861;29;20046;-65
2022/10/30 03:48:19;;;;;;;22.05;12.00;;;12.10;99.90;;;;;;4912443;29;20031;-64
2022/10/30 03:50:45;;;;;;;23.05;11.13;;;12.10;99.90;;;;;;4929738;29;20032;-64
2022/10/30 03:53:12;;;;;;;22.50;11.35;;;12.20;99.90;;;;;;4931172;29;20090;-64
2022/10/30 03:55:38;;;;;;;27.17;11.98;;;12.20;99.90;;;;;;4913548;29;20430;-64
2022/10/30 03:58:04;;;;;;;23.52;11.68;;;12.30;99.90;;;;;;4930077;29;20056;-64
2022/10/30 04:00:30;;;;;;;25.70;13.05;;;12.30;99.90;;;;;;4910679;29;20511;-66
2022/10/30 04:02:56;;;;;;;26.85;12.18;;;12.30;99.90;;;;;;4932655;29;20047;-64
2022/10/30 04:05:23;;;;;;;26.90;13.32;;;12.30;99.90;;;;;;4932562;29;20031;-64
2022/10/30 04:07:55;;;;;;;26.90;17.00;;;12.30;99.90;;;;;;4916545;29;20043;-65
2022/10/30 04:10:20;;;;;;;28.77;16.63;;;12.50;99.90;;;;;;4928451;29;20387;-65
2022/10/30 04:12:46;;;;;;;29.23;16.35;;;12.40;99.90;;;;;;4915942;29;20048;-64
2022/10/30 04:15:11;;;;;;;30.60;17.52;;;12.40;99.90;;;;;;4915320;29;20432;-64
2022/10/30 04:17:37;;;;;;;25.73;17.20;;;12.40;99.90;;;;;;4913013;29;20059;-65
2022/10/30 04:20:03;;;;;;;29.90;15.60;;;12.40;99.90;;;;;;4931708;29;20043;-65
2022/10/30 04:22:28;;;;;;;26.67;13.63;;;12.40;99.90;;;;;;4927290;29;20051;-64
2022/10/30 04:24:54;;;;;;;26.60;14.18;;;12.30;99.90;;;;;;4930348;29;20036;-64
2022/10/30 04:27:19;;;;;;;27.90;13.98;;;12.30;99.90;;;;;;4931490;29;20372;-64
2022/10/30 04:29:45;;;;;;;23.50;11.98;;;12.30;99.90;;;;;;4913971;29;20501;-64
2022/10/30 04:32:11;;;;;;;29.90;11.90;;;12.30;99.90;;;;;;4918913;29;20381;-64
2022/10/30 04:34:38;;;;;;;28.55;12.27;;;12.30;99.90;;;;;;4930747;29;20035;-65
2022/10/30 04:37:04;;;;;;;22.48;12.98;;;12.30;99.90;;;;;;4911620;29;20058;-65
2022/10/30 04:39:31;;;;;;;22.27;11.32;;;12.30;99.90;;;;;;4930844;29;20498;-64
2022/10/30 04:41:56;;;;;;;23.05;12.32;;;12.30;99.90;;;;;;4930111;29;20063;-63
2022/10/30 04:44:22;;;;;;;26.00;12.43;;;12.40;99.90;;;;;;4928220;29;20043;-66
2022/10/30 04:46:47;;;;;;;21.58;12.45;;;12.40;99.90;;;;;;4909519;29;20047;-65
2022/10/30 04:49:13;;;;;;;23.52;11.85;;;12.40;99.90;;;;;;4930913;29;20067;-64
2022/10/30 04:51:38;;;;;;;24.02;11.68;;;12.40;99.90;;;;;;4930720;29;20044;-64
2022/10/30 04:54:04;;;;;;;21.75;11.38;;;12.50;99.90;;;;;;4932030;29;20047;-65
2022/10/30 04:56:31;;;;;;;21.88;11.05;;;12.50;99.90;;;;;;4913308;29;20048;-64
2022/10/30 04:58:58;;;;;;;24.52;12.07;;;12.50;99.90;;;;;;4911074;29;20056;-65
2022/10/30 05:01:23;;;;;;;30.70;12.75;;;12.60;99.90;;;;;;4911676;29;20048;-64
2022/10/30 05:03:49;;;;;;;26.27;11.77;;;12.60;99.90;;;;;;4911874;29;20044;-64
2022/10/30 05:06:23;;;;;;;22.30;11.55;;;12.60;99.90;;;;;;4908118;29;20115;-64
2022/10/30 05:08:49;;;;;;;24.35;11.75;;;12.50;99.90;;;;;;4911706;29;20115;-64
2022/10/30 05:11:16;;;;;;;28.45;12.40;;;12.60;99.90;;;;;;4911762;29;20044;-65
2022/10/30 05:13:41;;;;;;;25.92;12.48;;;12.60;99.90;;;;;;4912093;29;20481;-64
2022/10/30 05:16:07;;;;;;;23.67;12.10;;;12.60;99.90;;;;;;4903438;29;20159;-65
2022/10/30 05:18:32;;;;;;;25.92;11.60;;;12.50;99.90;;;;;;4905932;29;20130;-65
2022/10/30 05:20:58;;;;;;;20.02;11.10;;;12.50;99.90;;;;;;4906607;29;20051;-65
2022/10/30 05:23:24;;;;;;;28.83;12.38;;;12.50;99.90;;;;;;4905509;29;20036;-65
2022/10/30 05:25:49;;;;;;;22.13;11.60;;;12.40;99.90;;;;;;4903019;29;20631;-65
2022/10/30 05:28:15;;;;;;;22.73;11.43;;;12.40;99.90;;;;;;4906360;29;20033;-63
2022/10/30 05:30:41;;;;;;;23.15;11.23;;;12.30;99.90;;;;;;4911902;29;20040;-64
2022/10/30 05:33:10;;;;;;;24.55;12.45;;;12.30;99.90;;;;;;4908319;29;20385;-65
2022/10/30 05:35:36;;;;;;;27.98;12.48;;;12.20;99.90;;;;;;4912578;29;20059;-64
2022/10/30 05:38:04;;;;;;;21.42;11.52;;;12.20;99.90;;;;;;4910196;29;20048;-64
2022/10/30 05:40:31;;;;;;;23.35;11.80;;;12.20;99.90;;;;;;4911724;29;20075;-65
2022/10/30 05:42:56;;;;;;;21.33;12.10;;;12.20;99.90;;;;;;4911904;29;20052;-65
2022/10/30 05:45:22;;;;;;;24.55;10.77;;;12.20;99.90;;;;;;4908792;29;20044;-65
2022/10/30 05:48:04;;;;;;;28.05;11.93;;;12.10;99.90;;;;;;4913848;29;20376;-64
2022/10/30 05:50:31;;;;;;;23.85;11.07;;;12.10;99.90;;;;;;4911045;29;20492;-66
2022/10/30 05:52:58;;;;;;;24.92;12.55;;;12.00;99.90;;;;;;4916998;29;20047;-64
2022/10/30 05:55:24;;;;;;;27.70;12.68;;;12.10;99.90;;;;;;4913561;29;20080;-64
2022/10/30 05:57:54;;;;;;;22.02;12.65;;;12.20;99.90;;;;;;4914415;29;20087;-65
2022/10/30 06:00:19;;;;;;;25.70;12.40;;;12.20;99.90;;;;;;4913643;29;20062;-65
2022/10/30 06:02:45;;;;;;;29.55;12.88;;;12.20;99.90;;;;;;4913655;29;20044;-63
2022/10/30 06:05:10;;;;;;;28.33;13.68;;;12.30;99.90;;;;;;4914163;29;20044;-64
2022/10/30 06:07:36;;;;;;;26.17;12.23;;;12.40;99.90;;;;;;4911941;29;20044;-66
2022/10/30 06:10:02;;;;;;;24.55;13.10;;;12.30;99.90;;;;;;4915709;29;20464;-64
2022/10/30 06:12:27;;;;;;;25.25;12.55;;;12.30;99.90;;;;;;4895709;29;20044;-65
2022/10/30 06:14:53;;;;;;;28.20;12.57;;;12.40;99.90;;;;;;4911801;29;20068;-65
2022/10/30 06:17:19;;;;;;;28.40;13.52;;;12.50;99.90;;;;;;4896376;29;20473;-65
2022/10/30 06:19:44;;;;;;;29.38;12.77;;;12.50;99.90;;;;;;4915989;29;20136;-64
2022/10/30 06:22:10;;;;;;;28.60;12.65;;;12.50;99.90;;;;;;4914991;29;20044;-64
2022/10/30 06:24:35;;;;;;;26.83;12.85;;;12.60;99.90;;;;;;4914022;29;20044;-64
2022/10/30 06:27:01;;;;;;;31.40;13.40;;;12.60;99.90;;;;;;4914034;29;20032;-64
2022/10/30 06:29:26;;;;;;;26.35;13.18;;;12.60;99.90;;;;;;4915008;29;20047;-64
2022/10/30 06:31:52;;;;;;;30.48;12.80;;;12.60;99.90;;;;;;4913209;29;20068;-64
2022/10/30 06:34:17;;;;;;;25.55;13.13;;;12.60;99.90;;;;;;4910955;29;20089;-64
2022/10/30 06:36:43;;;;;;;23.17;12.57;;;12.60;99.90;;;;;;4916919;29;20047;-64
2022/10/30 06:39:08;;;;;;;28.75;13.75;;;12.50;99.90;;;;;;4912938;29;20844;-65
2022/10/30 06:41:34;;;;;;;27.52;13.05;;;12.60;99.90;;;;;;4912618;29;20469;-64
2022/10/30 06:44:00;;;;;;;22.08;13.23;;;12.60;99.90;;;;;;4910413;29;20493;-64
2022/10/30 06:46:25;;;;;;;24.58;12.43;;;12.50;99.90;;;;;;4913773;29;20044;-64
2022/10/30 06:48:51;;;;;;;23.40;13.00;;;12.50;99.90;;;;;;4914369;29;20584;-63
2022/10/30 06:51:16;;;;;;;22.65;12.88;;;12.40;99.90;;;;;;4913002;29;20048;-63
2022/10/30 06:53:42;;;;;;;24.33;13.52;;;12.50;99.90;;;;;;4915149;29;20040;-64
2022/10/30 06:56:08;;;;;;;26.55;13.85;;;12.50;99.90;;;;;;4914903;29;20385;-64
2022/10/30 06:58:37;;;;;;;27.92;13.77;;;12.50;99.90;;;;;;4912402;29;20064;-63
2022/10/30 07:01:04;;;;;;;29.00;13.57;;;12.50;99.90;;;;;;4898944;29;20044;-64
2022/10/30 07:03:30;;;;;;;22.48;12.07;;;12.50;99.90;;;;;;4904266;29;20051;-64
2022/10/30 07:05:56;;;;;;;24.63;13.48;;;12.50;99.90;;;;;;4925093;29;20043;-64
2022/10/30 07:08:21;;;;;;;25.98;13.35;;;12.50;99.90;;;;;;4935283;29;20040;-64
2022/10/30 07:10:47;;;;;;;26.95;12.95;;;12.50;99.90;;;;;;4936214;29;20039;-64
2022/10/30 07:13:12;;;;;;;31.58;14.10;;;12.50;99.90;;;;;;4935406;29;20071;-63
2022/10/30 07:15:38;;;;;;;25.02;12.98;;;12.60;99.90;;;;;;4904126;29;20048;-64
2022/10/30 07:18:04;;;;;;;29.98;13.10;;;12.60;99.90;;;;;;4900284;29;20051;-64
2022/10/30 07:20:32;;;;;;;26.42;13.00;;;12.60;99.90;;;;;;4932453;29;20579;-64
2022/10/30 07:22:58;;;;;;;28.88;13.30;;;12.70;99.90;;;;;;4935422;29;20100;-65
2022/10/30 07:25:24;;;;;;;29.75;14.15;;;12.70;99.90;;;;;;4934710;29;20118;-64
2022/10/30 07:27:51;;;;;;;30.63;13.40;;;12.80;99.90;;;;;;4930677;29;20032;-64
2022/10/30 07:30:19;;;;;;;29.00;13.68;;;12.80;99.90;;;;;;4933722;29;20103;-64
2022/10/30 07:32:45;;;;;;;26.27;13.52;;;12.90;99.90;;;;;;4918585;29;20119;-65
2022/10/30 07:35:13;;;;;;;25.13;13.98;;;12.90;99.90;;;;;;4911140;29;20379;-64
2022/10/30 07:37:39;;;;;;;28.15;13.68;;;13.00;99.90;;;;;;4919063;29;20048;-64
2022/10/30 07:40:05;;;;;;;28.55;13.30;;;13.00;99.90;;;;;;4925393;29;20047;-64
2022/10/30 07:42:31;;;;;;;26.95;13.60;;;13.00;99.90;;;;;;4922157;29;20047;-65
2022/10/30 07:44:57;;;;;;;27.42;13.98;;;13.10;99.90;;;;;;4931798;29;20036;-64
2022/10/30 07:47:22;;;;;;;26.23;13.40;;;13.20;99.90;;;;;;4929392;29;20093;-64
2022/10/30 07:49:49;;;;;;;26.77;13.13;;;13.20;99.90;;;;;;4920191;29;20062;-63
2022/10/30 07:52:14;;;;;;;25.55;13.32;;;13.30;99.90;;;;;;4925465;29;20048;-64
2022/10/30 07:54:40;;;;;;;25.58;13.80;;;13.40;99.90;;;;;;4916154;29;20437;-64
2022/10/30 07:57:05;;;;;;;20.75;12.70;;;13.50;99.90;;;;;;4927646;29;20073;-63
2022/10/30 07:59:31;;;;;;;28.60;14.13;;;13.70;99.90;;;;;;4912445;29;20408;-64
2022/10/30 08:01:56;;;;;;;24.17;13.07;;;13.70;99.90;;;;;;4923030;29;20048;-66
2022/10/30 08:04:22;;;;;;;28.65;13.48;;;13.80;99.90;;;;;;4912893;29;20043;-65
2022/10/30 08:06:47;;;;;;;23.80;13.30;;;13.80;99.90;;;;;;4929309;29;20039;-65
2022/10/30 08:09:13;;;;;;;29.88;13.65;;;13.80;99.90;;;;;;4931259;29;20122;-64
2022/10/30 08:11:39;;;;;;;22.75;13.60;;;13.80;99.90;;;;;;4922953;29;20074;-65
2022/10/30 08:14:04;;;;;;;26.42;12.88;;;13.80;99.90;;;;;;4933417;29;20044;-64
2022/10/30 08:16:30;;;;;;;27.65;13.80;;;13.90;99.90;;;;;;4929977;29;20388;-64
2022/10/30 08:18:55;;;;;;;26.73;13.02;;;13.90;99.90;;;;;;4934502;29;20039;-64
2022/10/30 08:21:21;;;;;;;24.95;13.93;;;13.90;99.90;;;;;;4934275;29;20392;-64
2022/10/30 08:23:46;;;;;;;24.08;12.50;;;14.00;99.90;;;;;;4930990;29;20468;-64
2022/10/30 08:26:13;;;;;;;29.05;14.13;;;14.20;99.90;;;;;;4930728;29;20084;-64
2022/10/30 08:28:39;;;;;;;25.30;13.52;;;14.20;99.90;;;;;;4905013;29;20040;-64
2022/10/30 08:31:04;;;;;;;26.88;13.93;;;14.30;99.90;;;;;;4940842;29;20035;-64
2022/10/30 08:33:30;;;;;;;23.38;12.85;;;14.40;99.90;;;;;;4935325;29;20052;-64
2022/10/30 08:35:58;;;;;;;26.02;13.07;;;14.50;99.90;;;;;;4952325;29;20082;-64
2022/10/30 08:38:24;;;;;;;25.10;13.32;;;14.60;99.90;;;;;;4943789;29;20091;-64
2022/10/30 08:40:51;;;;;;;25.60;12.48;;;14.60;99.90;;;;;;4908264;29;20048;-64
2022/10/30 08:43:17;;;;;;;20.63;12.50;;;14.70;99.90;;;;;;4933523;29;20098;-64
2022/10/30 08:45:42;;;;;;;21.45;12.20;;;14.80;99.90;;;;;;4932220;29;20036;-64
2022/10/30 08:48:11;;;;;;;24.88;13.65;;;14.90;99.90;;;;;;4913490;29;20480;-64
2022/10/30 08:50:37;;;;;;;21.83;13.43;;;14.90;99.90;;;;;;4912953;29;20044;-64
2022/10/30 08:53:04;;;;;;;26.00;13.00;;;15.00;99.90;;;;;;4932571;29;20059;-64
2022/10/30 08:55:31;;;;;;;25.88;13.00;;;15.10;99.90;;;;;;4931784;29;20094;-66
2022/10/30 08:57:56;;;;;;;24.25;13.05;;;15.10;99.90;;;;;;4913553;29;20140;-64
2022/10/30 09:00:22;;;;;;;25.90;13.63;;;15.20;99.90;;;;;;4913505;29;20138;-64
2022/10/30 09:02:48;;;;;;;28.65;13.63;;;15.30;99.90;;;;;;4931040;29;20036;-64
2022/10/30 09:05:13;;;;;;;23.65;11.82;;;15.30;99.90;;;;;;4917846;29;20168;-65
2022/10/30 09:07:39;;;;;;;28.88;13.43;;;15.40;99.90;;;;;;4913081;29;20036;-64
2022/10/30 09:10:05;;;;;;;21.42;12.38;;;15.50;99.90;;;;;;4916154;29;20078;-65
2022/10/30 09:12:30;;;;;;;29.75;12.70;;;15.50;99.90;;;;;;4893395;29;20118;-65
2022/10/30 09:14:56;;;;;;;32.30;13.88;;;15.50;99.90;;;;;;4909822;29;20177;-64
2022/10/30 09:17:21;;;;;;;30.48;13.70;;;15.50;99.90;;;;;;4926723;29;20071;-64
2022/10/30 09:19:47;;;;;;;26.50;13.15;;;15.60;99.90;;;;;;4915653;29;20047;-65
2022/10/30 09:22:13;;;;;;;26.05;12.43;;;15.60;99.90;;;;;;4936401;29;20048;-64
2022/10/30 09:24:39;;;;;;;28.38;13.68;;;15.70;99.90;;;;;;4938319;29;20177;-65
2022/10/30 09:27:05;;;;;;;23.88;13.20;;;15.80;99.90;;;;;;4930726;29;20083;-65
2022/10/30 09:29:31;;;;;;;22.60;12.25;;;15.80;99.90;;;;;;4918166;29;20123;-66
2022/10/30 09:31:57;;;;;;;22.65;12.25;;;15.80;99.90;;;;;;4935024;29;20134;-64
2022/10/30 09:34:23;;;;;;;22.48;12.02;;;15.90;99.90;;;;;;4936940;29;20479;-64
2022/10/30 09:36:48;;;;;;;21.20;11.80;;;16.00;99.90;;;;;;4918628;29;20119;-64
2022/10/30 09:39:14;;;;;;;19.38;11.25;;;16.10;99.90;;;;;;4918629;29;20472;-64
2022/10/30 09:42:10;;;;;;;20.40;12.80;;;16.10;99.90;;;;;;4934809;29;20126;-65
2022/10/30 09:45:08;;;;;;;19.60;10.88;;;16.20;99.90;;;;;;4931325;29;20091;-65
2022/10/30 09:47:53;;;;;;;23.67;11.60;;;16.30;99.90;;;;;;4932775;29;20122;-65
2022/10/30 09:50:33;;;;;;;27.13;11.40;;;16.30;99.90;;;;;;4936000;29;20062;-65
2022/10/30 09:53:15;;;;;;;19.17;11.90;;;16.50;99.90;;;;;;4918366;29;20629;-65
2022/10/30 09:55:43;;;;;;;25.30;11.98;;;16.50;99.90;;;;;;4918595;29;20392;-64
2022/10/30 09:58:35;;;;;;;23.42;11.98;;;16.60;99.90;;;;;;4930127;29;20115;-65
2022/10/30 10:01:21;;;;;;;23.17;11.65;;;16.60;99.90;;;;;;4934489;29;20039;-65
2022/10/30 10:03:56;;;;;;;20.63;12.20;;;16.80;99.90;;;;;;4920739;29;20106;-64
2022/10/30 10:06:23;;;;;;;24.17;11.93;;;16.90;99.90;;;;;;4935788;29;20043;-65
2022/10/30 10:09:06;;;;;;;25.02;11.65;;;17.00;99.90;;;;;;4933835;29;20070;-64
2022/10/30 10:11:36;;;;;;;22.08;11.05;;;17.00;99.90;;;;;;4920245;29;20050;-65
2022/10/30 10:14:13;;;;;;;20.98;10.95;;;17.20;99.90;;;;;;4935309;29;20443;-65
2022/10/30 10:16:40;;;;;;;25.55;12.05;;;17.30;99.90;;;;;;4929438;29;20058;-64
2022/10/30 10:19:19;;;;;;;24.70;12.00;;;17.30;99.90;;;;;;4937334;29;20558;-64
2022/10/30 10:21:54;;;;;;;22.17;10.90;;;17.30;99.90;;;;;;4934191;29;20063;-64
2022/10/30 10:24:34;;;;;;;21.17;11.25;;;17.40;99.90;;;;;;4918980;29;20164;-64
2022/10/30 10:27:12;;;;;;;;;;;17.50;99.90;;;;;;4932136;29;20050;-65
2022/10/30 10:30:22;;;;;;;26.20;11.73;;;17.50;99.90;;;;;;4918390;29;19949;-66
2022/10/30 10:33:14;;;;;;;18.93;10.37;;;17.60;99.90;;;;;;4933832;29;20090;-66
2022/10/30 10:36:11;;;;;;;21.55;10.23;;;17.70;99.90;;;;;;4921397;29;20055;-64
2022/10/30 10:39:01;;;;;;;21.23;10.55;;;17.90;99.90;;;;;;4929149;29;20052;-63
2022/10/30 10:41:45;;;;;;;;;;;17.90;99.90;;;;;;4936282;29;20062;-65
2022/10/30 10:44:32;;;;;;;25.38;10.68;;;18.00;99.90;;;;;;4930129;29;19926;-65
2022/10/30 10:47:33;;;;;;;23.50;11.13;;;18.10;99.90;;;;;;4930234;29;20054;-65
2022/10/30 10:50:24;;;;;;;22.30;10.63;;;18.10;99.90;;;;;;4910793;29;20492;-65
2022/10/30 10:52:53;;;;;;;22.52;10.15;;;18.20;99.90;;;;;;4934294;29;20568;-64
2022/10/30 10:55:22;;;;;;;26.88;11.40;;;18.20;99.90;;;;;;4934821;29;20372;-65
2022/10/30 10:57:50;;;;;;;22.30;10.00;;;18.20;99.90;;;;;;4911446;29;20115;-65
2022/10/30 11:00:22;;;;;;;18.63;9.32;;;18.20;99.90;;;;;;4931633;29;20499;-64
2022/10/30 11:02:55;;;;;;;26.88;11.23;;;18.30;99.90;;;;;;4934703;29;20050;-64
2022/10/30 11:05:51;;;;;;;21.58;10.30;;;18.40;99.90;;;;;;4935238;29;20047;-64
2022/10/30 11:08:27;;;;;;;23.80;11.10;;;18.40;99.90;;;;;;4934391;29;20075;-64
2022/10/30 11:11:01;;;;;;;21.73;9.77;;;18.50;99.90;;;;;;4933650;29;20086;-64
2022/10/30 11:13:30;;;;;;;19.30;10.02;;;18.40;99.90;;;;;;4932936;29;20059;-65
2022/10/30 11:16:27;;;;;;;20.57;9.93;;;18.50;99.90;;;;;;4933399;29;20052;-65
2022/10/30 11:18:59;;;;;;;20.45;9.23;;;18.60;99.90;;;;;;4930973;29;20123;-65
2022/10/30 11:21:28;;;;;;;17.20;9.40;;;18.70;99.90;;;;;;4932028;29;20484;-65
2022/10/30 11:23:53;;;;;;;17.08;9.65;;;18.70;99.90;;;;;;4935671;29;20051;-65
2022/10/30 11:26:19;;;;;;;18.95;8.73;;;18.80;99.90;;;;;;4934026;29;20040;-65
2022/10/30 11:28:47;;;;;;;17.02;8.38;;;18.70;99.90;;;;;;4934560;29;20046;-65
2022/10/30 11:31:29;;;;;;;20.15;8.43;;;18.80;99.90;;;;;;4930296;29;20047;-65
2022/10/30 11:33:54;;;;;;;17.45;8.70;;;18.80;99.90;;;;;;4933985;29;20039;-65
2022/10/30 11:36:24;;;;;;;17.95;9.52;;;18.80;99.90;;;;;;4910213;29;20042;-65
2022/10/30 11:38:52;;;;;;;23.67;9.20;;;18.90;99.90;;;;;;4910679;29;20048;-64
2022/10/30 11:41:19;;;;;;;19.23;9.38;;;18.90;99.90;;;;;;4923752;29;20051;-65
2022/10/30 11:43:45;;;;;;;18.58;9.68;;;18.90;99.90;;;;;;4930930;29;20119;-64
2022/10/30 11:46:21;;;;;;;15.18;9.13;;;18.90;99.90;;;;;;4927868;29;20039;-65
2022/10/30 11:48:53;;;;;;;22.20;9.02;;;18.90;99.90;;;;;;4920103;29;20040;-65
2022/10/30 11:51:36;;;;;;;21.17;9.82;;;19.00;99.90;;;;;;4930181;29;20115;-66
2022/10/30 11:54:03;;;;;;;17.30;9.35;;;19.10;99.90;;;;;;4931794;29;20091;-65
2022/10/30 11:56:30;;;;;;;20.30;8.25;;;19.10;99.90;;;;;;4929987;29;20058;-65
2022/10/30 11:58:59;;;;;;;17.17;8.90;;;19.20;99.90;;;;;;4915884;29;20068;-66
2022/10/30 12:01:27;;;;;;;18.25;8.32;;;19.20;99.90;;;;;;4931595;29;20043;-65
2022/10/30 12:03:54;;;;;;;17.35;8.40;;;19.30;99.90;;;;;;4916257;29;20122;-66
2022/10/30 12:06:28;;;;;;;16.33;7.85;;;19.40;99.90;;;;;;4931059;29;20047;-66
2022/10/30 12:09:08;;;;;;;18.13;7.88;;;19.50;99.90;;;;;;4924334;29;20077;-65
2022/10/30 12:11:36;;;;;;;14.95;7.55;;;19.60;99.90;;;;;;4929697;29;20032;-65
2022/10/30 12:14:02;;;;;;;16.83;7.78;;;19.60;99.90;;;;;;4913058;29;20050;-67
2022/10/30 12:16:28;;;;;;;16.15;8.65;;;19.60;99.90;;;;;;4931540;29;20036;-66
2022/10/30 12:19:04;;;;;;;16.08;7.90;;;19.60;99.90;;;;;;4911750;29;20048;-66
2022/10/30 12:21:38;;;;;;;17.77;9.00;;;19.60;99.90;;;;;;4928074;29;20047;-66
2022/10/30 12:24:08;;;;;;;14.63;7.32;;;19.60;99.90;;;;;;4898167;29;20048;-67
2022/10/30 12:26:36;;;;;;;15.50;7.75;;;19.60;99.90;;;;;;4931494;29;20058;-66
2022/10/30 12:29:05;;;;;;;13.05;7.90;;;19.60;99.90;;;;;;4914957;29;20051;-67
2022/10/30 12:31:48;;;;;;;15.20;8.32;;;19.60;99.90;;;;;;4905698;29;20040;-67
2022/10/30 12:34:39;;;;;;;19.02;8.25;;;19.70;99.90;;;;;;4907642;29;20044;-67
2022/10/30 12:37:11;;;;;;;19.60;7.70;;;19.70;99.90;;;;;;4915661;29;20055;-67
2022/10/30 12:39:59;;;;;;;18.55;8.20;;;19.80;99.90;;;;;;4918281;29;20051;-65